sensor_id;sensor_type;location;lat;lon;timestamp;pressure;altitude;pressure_sealevel;temperature;humidity
57847;BME280;43675;50.030;21.952;2023-07-20T00:01:28;97941.66;;;15.67;85.26
57847;BME280;43675;50.030;21.952;2023-07-20T00:03:54;97942.85;;;15.66;85.29
57847;BME280;43675;50.030;21.952;2023-07-20T00:06:24;97944.21;;;15.66;85.36
57847;BME280;43675;50.030;21.952;2023-07-20T00:08:51;97945.50;;;15.66;85.43
57847;BME280;43675;50.030;21.952;2023-07-20T00:11:18;97942.52;;;15.65;85.59
57847;BME280;43675;50.030;21.952;2023-07-20T00:13:44;97939.44;;;15.65;85.62
57847;BME280;43675;50.030;21.952;2023-07-20T00:16:11;97941.82;;;15.65;85.84
57847;BME280;43675;50.030;21.952;2023-07-20T00:18:38;97939.67;;;15.67;85.76
57847;BME280;43675;50.030;21.952;2023-07-20T00:21:04;97938.00;;;15.68;85.85
57847;BME280;43675;50.030;21.952;2023-07-20T00:23:31;97938.20;;;15.68;85.88
57847;BME280;43675;50.030;21.952;2023-07-20T00:25:57;97941.02;;;15.68;85.88
57847;BME280;43675;50.030;21.952;2023-07-20T00:28:24;97944.48;;;15.66;85.91
57847;BME280;43675;50.030;21.952;2023-07-20T00:30:50;97938.52;;;15.64;85.90
57847;BME280;43675;50.030;21.952;2023-07-20T00:33:18;97940.19;;;15.62;85.98
57847;BME280;43675;50.030;21.952;2023-07-20T00:35:44;97933.20;;;15.60;86.04
57847;BME280;43675;50.030;21.952;2023-07-20T00:38:11;97932.17;;;15.58;86.21
57847;BME280;43675;50.030;21.952;2023-07-20T00:40:39;97933.52;;;15.58;86.27
57847;BME280;43675;50.030;21.952;2023-07-20T00:43:06;97934.44;;;15.59;86.42
57847;BME280;43675;50.030;21.952;2023-07-20T00:45:34;97932.23;;;15.61;86.51
57847;BME280;43675;50.030;21.952;2023-07-20T00:48:01;97928.78;;;15.67;86.43
57847;BME280;43675;50.030;21.952;2023-07-20T00:50:29;97921.65;;;15.67;86.41
57847;BME280;43675;50.030;21.952;2023-07-20T00:52:56;97924.84;;;15.67;86.52
57847;BME280;43675;50.030;21.952;2023-07-20T00:55:24;97929.34;;;15.71;86.62
57847;BME280;43675;50.030;21.952;2023-07-20T00:57:51;97924.54;;;15.74;86.68
57847;BME280;43675;50.030;21.952;2023-07-20T01:00:17;97922.43;;;15.77;86.73
57847;BME280;43675;50.030;21.952;2023-07-20T01:02:45;97917.75;;;15.80;86.77
57847;BME280;43675;50.030;21.952;2023-07-20T01:05:12;97916.61;;;15.82;86.69
57847;BME280;43675;50.030;21.952;2023-07-20T01:07:55;97918.25;;;15.88;86.69
57847;BME280;43675;50.030;21.952;2023-07-20T01:10:43;97914.38;;;15.95;86.54
57847;BME280;43675;50.030;21.952;2023-07-20T01:13:14;97918.66;;;16.01;86.42
57847;BME280;43675;50.030;21.952;2023-07-20T01:15:41;97916.78;;;16.09;86.16
57847;BME280;43675;50.030;21.952;2023-07-20T01:18:07;97916.52;;;16.13;86.17
57847;BME280;43675;50.030;21.952;2023-07-20T01:20:34;97914.68;;;16.17;86.09
57847;BME280;43675;50.030;21.952;2023-07-20T01:31:46;97924.12;;;16.27;85.52
57847;BME280;43675;50.030;21.952;2023-07-20T01:34:17;97930.63;;;16.29;85.46
57847;BME280;43675;50.030;21.952;2023-07-20T01:36:45;97934.85;;;16.35;85.37
57847;BME280;43675;50.030;21.952;2023-07-20T01:39:12;97943.51;;;16.39;85.26
57847;BME280;43675;50.030;21.952;2023-07-20T01:41:39;97947.10;;;16.42;85.22
57847;BME280;43675;50.030;21.952;2023-07-20T01:44:06;97944.34;;;16.42;85.11
57847;BME280;43675;50.030;21.952;2023-07-20T01:46:32;97938.31;;;16.40;85.07
57847;BME280;43675;50.030;21.952;2023-07-20T01:48:59;97936.43;;;16.36;84.98
57847;BME280;43675;50.030;21.952;2023-07-20T01:51:25;97938.86;;;16.33;84.97
57847;BME280;43675;50.030;21.952;2023-07-20T01:53:52;97937.98;;;16.29;85.06
57847;BME280;43675;50.030;21.952;2023-07-20T01:56:18;97941.39;;;16.26;85.07
57847;BME280;43675;50.030;21.952;2023-07-20T01:58:45;97936.17;;;16.25;85.15
57847;BME280;43675;50.030;21.952;2023-07-20T02:01:11;97933.42;;;16.24;85.32
57847;BME280;43675;50.030;21.952;2023-07-20T02:03:38;97925.41;;;16.23;85.33
57847;BME280;43675;50.030;21.952;2023-07-20T02:06:05;97917.55;;;16.24;85.27
57847;BME280;43675;50.030;21.952;2023-07-20T02:08:31;97911.93;;;16.25;85.26
57847;BME280;43675;50.030;21.952;2023-07-20T02:10:58;97908.41;;;16.23;85.22
57847;BME280;43675;50.030;21.952;2023-07-20T02:13:24;97912.42;;;16.21;85.19
57847;BME280;43675;50.030;21.952;2023-07-20T02:15:51;97918.09;;;16.17;85.19
57847;BME280;43675;50.030;21.952;2023-07-20T02:18:17;97922.48;;;16.14;85.10
57847;BME280;43675;50.030;21.952;2023-07-20T02:20:44;97924.52;;;16.07;85.21
57847;BME280;43675;50.030;21.952;2023-07-20T02:23:10;97925.54;;;16.01;85.37
57847;BME280;43675;50.030;21.952;2023-07-20T02:25:37;97924.39;;;15.96;85.49
57847;BME280;43675;50.030;21.952;2023-07-20T02:28:04;97923.84;;;15.92;85.51
57847;BME280;43675;50.030;21.952;2023-07-20T02:30:30;97922.20;;;15.88;85.58
57847;BME280;43675;50.030;21.952;2023-07-20T02:32:57;97918.24;;;15.86;85.74
57847;BME280;43675;50.030;21.952;2023-07-20T02:35:23;97913.85;;;15.82;85.89
57847;BME280;43675;50.030;21.952;2023-07-20T02:37:50;97908.77;;;15.80;85.82
57847;BME280;43675;50.030;21.952;2023-07-20T02:40:16;97907.17;;;15.76;85.96
57847;BME280;43675;50.030;21.952;2023-07-20T02:42:43;97904.84;;;15.72;85.99
57847;BME280;43675;50.030;21.952;2023-07-20T02:45:10;97902.77;;;15.69;85.99
57847;BME280;43675;50.030;21.952;2023-07-20T02:47:36;97898.16;;;15.64;86.05
57847;BME280;43675;50.030;21.952;2023-07-20T02:50:05;97898.14;;;15.59;86.00
57847;BME280;43675;50.030;21.952;2023-07-20T02:52:32;97895.64;;;15.54;86.02
57847;BME280;43675;50.030;21.952;2023-07-20T02:54:58;97894.48;;;15.50;86.00
57847;BME280;43675;50.030;21.952;2023-07-20T02:57:25;97890.92;;;15.45;86.02
57847;BME280;43675;50.030;21.952;2023-07-20T02:59:51;97888.58;;;15.42;86.15
57847;BME280;43675;50.030;21.952;2023-07-20T03:02:18;97893.27;;;15.38;86.19
57847;BME280;43675;50.030;21.952;2023-07-20T03:04:45;97894.89;;;15.35;86.36
57847;BME280;43675;50.030;21.952;2023-07-20T03:07:11;97898.06;;;15.32;86.50
57847;BME280;43675;50.030;21.952;2023-07-20T03:09:38;97901.30;;;15.31;86.79
57847;BME280;43675;50.030;21.952;2023-07-20T03:12:05;97902.96;;;15.31;86.80
57847;BME280;43675;50.030;21.952;2023-07-20T03:14:31;97901.46;;;15.31;87.06
57847;BME280;43675;50.030;21.952;2023-07-20T03:16:58;97901.85;;;15.34;87.18
57847;BME280;43675;50.030;21.952;2023-07-20T03:19:25;97903.92;;;15.36;87.23
57847;BME280;43675;50.030;21.952;2023-07-20T03:21:51;97907.39;;;15.41;87.50
57847;BME280;43675;50.030;21.952;2023-07-20T03:24:18;97909.66;;;15.47;87.71
57847;BME280;43675;50.030;21.952;2023-07-20T03:26:44;97915.98;;;15.57;87.74
57847;BME280;43675;50.030;21.952;2023-07-20T03:29:11;97923.77;;;15.67;87.81
57847;BME280;43675;50.030;21.952;2023-07-20T03:31:37;97919.20;;;15.77;87.73
57847;BME280;43675;50.030;21.952;2023-07-20T03:34:04;97925.34;;;15.87;87.62
57847;BME280;43675;50.030;21.952;2023-07-20T03:36:30;97923.15;;;15.96;87.54
57847;BME280;43675;50.030;21.952;2023-07-20T03:38:57;97914.13;;;16.06;87.44
57847;BME280;43675;50.030;21.952;2023-07-20T03:41:23;97908.14;;;16.17;87.23
57847;BME280;43675;50.030;21.952;2023-07-20T03:43:50;97902.19;;;16.26;86.90
57847;BME280;43675;50.030;21.952;2023-07-20T03:46:16;97902.69;;;16.34;86.72
57847;BME280;43675;50.030;21.952;2023-07-20T03:48:43;97906.64;;;16.42;86.51
57847;BME280;43675;50.030;21.952;2023-07-20T03:51:09;97911.02;;;16.48;86.29
57847;BME280;43675;50.030;21.952;2023-07-20T03:53:36;97920.45;;;16.56;86.05
57847;BME280;43675;50.030;21.952;2023-07-20T03:56:02;97919.08;;;16.66;85.92
57847;BME280;43675;50.030;21.952;2023-07-20T03:58:29;97923.40;;;16.77;85.80
57847;BME280;43675;50.030;21.952;2023-07-20T04:00:57;97933.41;;;16.93;85.69
57847;BME280;43675;50.030;21.952;2023-07-20T04:03:23;97930.56;;;17.12;85.38
57847;BME280;43675;50.030;21.952;2023-07-20T04:05:50;97928.01;;;17.35;85.01
57847;BME280;43675;50.030;21.952;2023-07-20T04:08:17;97927.08;;;17.57;84.41
57847;BME280;43675;50.030;21.952;2023-07-20T04:10:44;97924.61;;;17.79;83.68
57847;BME280;43675;50.030;21.952;2023-07-20T04:13:11;97933.12;;;18.03;83.01
57847;BME280;43675;50.030;21.952;2023-07-20T04:15:37;97935.86;;;18.24;82.34
57847;BME280;43675;50.030;21.952;2023-07-20T04:18:04;97936.95;;;18.41;81.68
57847;BME280;43675;50.030;21.952;2023-07-20T04:20:31;97947.15;;;18.50;81.07
57847;BME280;43675;50.030;21.952;2023-07-20T04:22:57;97953.82;;;18.55;80.69
57847;BME280;43675;50.030;21.952;2023-07-20T04:25:24;97957.24;;;18.58;80.36
57847;BME280;43675;50.030;21.952;2023-07-20T04:27:50;97970.00;;;18.59;79.79
57847;BME280;43675;50.030;21.952;2023-07-20T04:30:17;97983.95;;;18.61;79.30
57847;BME280;43675;50.030;21.952;2023-07-20T04:32:44;97993.45;;;18.63;78.84
57847;BME280;43675;50.030;21.952;2023-07-20T04:35:16;98001.42;;;18.64;78.27
57847;BME280;43675;50.030;21.952;2023-07-20T04:37:42;98012.71;;;18.67;77.79
57847;BME280;43675;50.030;21.952;2023-07-20T04:40:09;98018.77;;;18.72;77.31
57847;BME280;43675;50.030;21.952;2023-07-20T04:42:36;98022.25;;;18.72;76.98
57847;BME280;43675;50.030;21.952;2023-07-20T04:45:03;98030.56;;;18.72;76.97
57847;BME280;43675;50.030;21.952;2023-07-20T04:47:29;98032.63;;;18.71;76.81
57847;BME280;43675;50.030;21.952;2023-07-20T04:49:56;98029.54;;;18.70;76.65
57847;BME280;43675;50.030;21.952;2023-07-20T04:52:22;98029.06;;;18.67;76.62
57847;BME280;43675;50.030;21.952;2023-07-20T04:54:49;98023.67;;;18.63;76.29
57847;BME280;43675;50.030;21.952;2023-07-20T04:57:15;98011.61;;;18.53;76.29
57847;BME280;43675;50.030;21.952;2023-07-20T04:59:42;97998.46;;;18.40;76.23
57847;BME280;43675;50.030;21.952;2023-07-20T05:02:08;97984.24;;;18.28;76.45
57847;BME280;43675;50.030;21.952;2023-07-20T05:04:35;97974.06;;;18.14;76.46
57847;BME280;43675;50.030;21.952;2023-07-20T05:07:01;97979.67;;;17.98;76.70
57847;BME280;43675;50.030;21.952;2023-07-20T05:09:28;97990.38;;;17.65;77.12
57847;BME280;43675;50.030;21.952;2023-07-20T05:11:54;98010.27;;;17.24;78.28
57847;BME280;43675;50.030;21.952;2023-07-20T05:14:21;98033.64;;;16.91;79.46
57847;BME280;43675;50.030;21.952;2023-07-20T05:16:47;98040.88;;;16.66;80.39
57847;BME280;43675;50.030;21.952;2023-07-20T05:19:14;98050.45;;;16.46;81.22
57847;BME280;43675;50.030;21.952;2023-07-20T05:21:40;98055.02;;;16.33;81.91
57847;BME280;43675;50.030;21.952;2023-07-20T05:24:07;98055.80;;;16.24;82.57
57847;BME280;43675;50.030;21.952;2023-07-20T05:26:34;98057.20;;;16.19;82.94
57847;BME280;43675;50.030;21.952;2023-07-20T05:29:00;98072.07;;;16.15;83.25
57847;BME280;43675;50.030;21.952;2023-07-20T05:31:27;98078.17;;;16.12;83.49
57847;BME280;43675;50.030;21.952;2023-07-20T05:33:53;98074.21;;;16.11;83.69
57847;BME280;43675;50.030;21.952;2023-07-20T05:36:20;98069.82;;;16.09;83.75
57847;BME280;43675;50.030;21.952;2023-07-20T05:38:46;98071.38;;;16.07;83.92
57847;BME280;43675;50.030;21.952;2023-07-20T05:41:13;98067.75;;;16.05;84.02
57847;BME280;43675;50.030;21.952;2023-07-20T05:43:39;98057.67;;;16.04;84.26
57847;BME280;43675;50.030;21.952;2023-07-20T05:46:06;98049.34;;;16.03;84.36
57847;BME280;43675;50.030;21.952;2023-07-20T05:48:32;98061.56;;;16.02;84.49
57847;BME280;43675;50.030;21.952;2023-07-20T05:50:58;98064.75;;;16.01;84.52
57847;BME280;43675;50.030;21.952;2023-07-20T05:53:25;98063.79;;;16.02;84.75
57847;BME280;43675;50.030;21.952;2023-07-20T05:55:53;98060.13;;;16.07;84.89
57847;BME280;43675;50.030;21.952;2023-07-20T05:58:19;98059.55;;;16.13;84.91
57847;BME280;43675;50.030;21.952;2023-07-20T06:00:50;98065.33;;;16.22;85.07
57847;BME280;43675;50.030;21.952;2023-07-20T06:03:16;98067.55;;;16.38;85.24
57847;BME280;43675;50.030;21.952;2023-07-20T06:05:43;98073.63;;;16.59;85.38
57847;BME280;43675;50.030;21.952;2023-07-20T06:08:10;98086.21;;;16.81;85.31
57847;BME280;43675;50.030;21.952;2023-07-20T06:10:36;98097.34;;;16.99;85.07
57847;BME280;43675;50.030;21.952;2023-07-20T06:13:03;98093.45;;;17.13;84.85
57847;BME280;43675;50.030;21.952;2023-07-20T06:15:33;98075.94;;;17.24;84.35
57847;BME280;43675;50.030;21.952;2023-07-20T06:18:00;98069.31;;;17.32;84.00
57847;BME280;43675;50.030;21.952;2023-07-20T06:20:27;98090.63;;;17.40;83.65
57847;BME280;43675;50.030;21.952;2023-07-20T06:22:53;98093.66;;;17.51;83.49
57847;BME280;43675;50.030;21.952;2023-07-20T06:25:20;98083.91;;;17.63;83.17
57847;BME280;43675;50.030;21.952;2023-07-20T06:27:48;98085.30;;;17.73;82.73
57847;BME280;43675;50.030;21.952;2023-07-20T06:30:15;98088.27;;;17.79;82.33
57847;BME280;43675;50.030;21.952;2023-07-20T06:32:41;98084.09;;;17.80;82.04
57847;BME280;43675;50.030;21.952;2023-07-20T06:35:08;98110.80;;;17.76;81.91
57847;BME280;43675;50.030;21.952;2023-07-20T06:37:35;98112.27;;;17.68;82.06
57847;BME280;43675;50.030;21.952;2023-07-20T06:40:02;98064.16;;;17.59;81.95
57847;BME280;43675;50.030;21.952;2023-07-20T06:42:30;98041.40;;;17.53;81.90
57847;BME280;43675;50.030;21.952;2023-07-20T06:44:57;98067.29;;;17.47;81.73
57847;BME280;43675;50.030;21.952;2023-07-20T06:47:24;98082.98;;;17.42;81.79
57847;BME280;43675;50.030;21.952;2023-07-20T06:49:52;98064.96;;;17.41;81.99
57847;BME280;43675;50.030;21.952;2023-07-20T06:52:18;98083.95;;;17.47;82.17
57847;BME280;43675;50.030;21.952;2023-07-20T06:54:45;98105.11;;;17.55;81.88
57847;BME280;43675;50.030;21.952;2023-07-20T06:57:11;98111.36;;;17.56;81.65
57847;BME280;43675;50.030;21.952;2023-07-20T06:59:38;98120.52;;;17.50;81.29
57847;BME280;43675;50.030;21.952;2023-07-20T07:02:05;98133.16;;;17.40;81.22
57847;BME280;43675;50.030;21.952;2023-07-20T07:04:31;98136.69;;;17.28;81.28
57847;BME280;43675;50.030;21.952;2023-07-20T07:06:59;98137.42;;;17.19;81.51
57847;BME280;43675;50.030;21.952;2023-07-20T07:09:25;98143.34;;;17.13;81.63
57847;BME280;43675;50.030;21.952;2023-07-20T07:11:52;98127.61;;;17.08;81.76
57847;BME280;43675;50.030;21.952;2023-07-20T07:14:20;98141.38;;;17.04;81.75
57847;BME280;43675;50.030;21.952;2023-07-20T07:16:47;98144.73;;;17.01;82.05
57847;BME280;43675;50.030;21.952;2023-07-20T07:19:13;98141.92;;;17.01;82.30
57847;BME280;43675;50.030;21.952;2023-07-20T07:21:40;98151.17;;;17.03;82.35
57847;BME280;43675;50.030;21.952;2023-07-20T07:24:06;98145.55;;;17.04;82.38
57847;BME280;43675;50.030;21.952;2023-07-20T07:26:33;98149.39;;;17.06;82.34
57847;BME280;43675;50.030;21.952;2023-07-20T07:29:00;98146.38;;;17.06;82.21
57847;BME280;43675;50.030;21.952;2023-07-20T07:31:26;98157.80;;;17.04;82.05
57847;BME280;43675;50.030;21.952;2023-07-20T07:33:52;98180.46;;;17.04;82.01
57847;BME280;43675;50.030;21.952;2023-07-20T07:36:19;98174.39;;;17.01;81.90
57847;BME280;43675;50.030;21.952;2023-07-20T07:38:45;98167.93;;;16.96;81.70
57847;BME280;43675;50.030;21.952;2023-07-20T07:41:12;98173.11;;;16.89;81.67
57847;BME280;43675;50.030;21.952;2023-07-20T07:43:39;98173.30;;;16.81;81.71
57847;BME280;43675;50.030;21.952;2023-07-20T07:46:05;98160.77;;;16.77;81.88
57847;BME280;43675;50.030;21.952;2023-07-20T07:48:32;98158.35;;;16.78;81.95
57847;BME280;43675;50.030;21.952;2023-07-20T07:50:58;98148.59;;;16.80;81.84
57847;BME280;43675;50.030;21.952;2023-07-20T07:53:25;98139.98;;;16.83;81.82
57847;BME280;43675;50.030;21.952;2023-07-20T07:55:52;98124.44;;;16.90;81.87
57847;BME280;43675;50.030;21.952;2023-07-20T07:58:19;98131.44;;;16.95;81.72
57847;BME280;43675;50.030;21.952;2023-07-20T08:00:45;98139.20;;;17.02;81.77
57847;BME280;43675;50.030;21.952;2023-07-20T08:03:12;98165.73;;;17.11;81.66
57847;BME280;43675;50.030;21.952;2023-07-20T08:05:38;98177.35;;;17.19;81.48
57847;BME280;43675;50.030;21.952;2023-07-20T08:08:05;98179.31;;;17.24;81.10
57847;BME280;43675;50.030;21.952;2023-07-20T08:10:31;98170.02;;;17.26;80.82
57847;BME280;43675;50.030;21.952;2023-07-20T08:12:58;98175.08;;;17.26;80.53
57847;BME280;43675;50.030;21.952;2023-07-20T08:15:25;98176.61;;;17.28;80.35
57847;BME280;43675;50.030;21.952;2023-07-20T08:17:51;98172.38;;;17.33;80.16
57847;BME280;43675;50.030;21.952;2023-07-20T08:20:18;98163.82;;;17.46;80.12
57847;BME280;43675;50.030;21.952;2023-07-20T08:22:44;98157.24;;;17.56;79.53
57847;BME280;43675;50.030;21.952;2023-07-20T08:25:11;98153.31;;;17.65;79.03
57847;BME280;43675;50.030;21.952;2023-07-20T08:27:37;98158.85;;;17.80;78.66
57847;BME280;43675;50.030;21.952;2023-07-20T08:30:04;98165.36;;;18.04;78.40
57847;BME280;43675;50.030;21.952;2023-07-20T08:32:32;98163.82;;;18.32;77.70
57847;BME280;43675;50.030;21.952;2023-07-20T08:34:59;98164.20;;;18.55;77.11
57847;BME280;43675;50.030;21.952;2023-07-20T08:37:25;98163.60;;;18.72;76.40
57847;BME280;43675;50.030;21.952;2023-07-20T08:39:52;98163.80;;;18.84;75.95
57847;BME280;43675;50.030;21.952;2023-07-20T08:42:18;98169.73;;;18.94;75.70
57847;BME280;43675;50.030;21.952;2023-07-20T08:44:47;98176.47;;;19.04;75.71
57847;BME280;43675;50.030;21.952;2023-07-20T08:47:16;98185.46;;;19.12;75.26
57847;BME280;43675;50.030;21.952;2023-07-20T08:49:42;98189.62;;;19.07;74.62
57847;BME280;43675;50.030;21.952;2023-07-20T08:52:09;98190.96;;;19.02;74.36
57847;BME280;43675;50.030;21.952;2023-07-20T08:54:36;98192.81;;;19.10;74.47
57847;BME280;43675;50.030;21.952;2023-07-20T08:57:04;98196.44;;;19.47;74.32
57847;BME280;43675;50.030;21.952;2023-07-20T08:59:32;98201.09;;;19.98;73.48
57847;BME280;43675;50.030;21.952;2023-07-20T09:02:00;98199.81;;;20.51;72.07
57847;BME280;43675;50.030;21.952;2023-07-20T09:04:26;98200.47;;;20.91;70.52
57847;BME280;43675;50.030;21.952;2023-07-20T09:06:53;98195.25;;;21.24;69.21
57847;BME280;43675;50.030;21.952;2023-07-20T09:09:20;98196.99;;;21.64;68.17
57847;BME280;43675;50.030;21.952;2023-07-20T09:11:49;98193.91;;;22.08;67.51
57847;BME280;43675;50.030;21.952;2023-07-20T09:14:16;98187.97;;;22.51;66.22
57847;BME280;43675;50.030;21.952;2023-07-20T09:16:50;98180.98;;;22.94;65.53
57847;BME280;43675;50.030;21.952;2023-07-20T09:19:17;98184.02;;;23.38;64.73
57847;BME280;43675;50.030;21.952;2023-07-20T09:21:51;98186.91;;;23.77;63.29
57847;BME280;43675;50.030;21.952;2023-07-20T09:24:19;98187.29;;;24.06;61.94
57847;BME280;43675;50.030;21.952;2023-07-20T09:26:47;98184.38;;;24.04;61.30
57847;BME280;43675;50.030;21.952;2023-07-20T09:29:18;98189.62;;;24.07;60.84
57847;BME280;43675;50.030;21.952;2023-07-20T09:31:59;98188.92;;;24.13;60.17
57847;BME280;43675;50.030;21.952;2023-07-20T09:34:26;98195.89;;;24.20;60.10
57847;BME280;43675;50.030;21.952;2023-07-20T09:36:52;98193.58;;;24.22;59.51
57847;BME280;43675;50.030;21.952;2023-07-20T09:39:20;98200.81;;;24.14;59.25
57847;BME280;43675;50.030;21.952;2023-07-20T09:41:46;98197.55;;;23.96;58.98
57847;BME280;43675;50.030;21.952;2023-07-20T09:44:14;98199.48;;;23.85;58.86
57847;BME280;43675;50.030;21.952;2023-07-20T09:46:45;98199.17;;;23.93;58.85
57847;BME280;43675;50.030;21.952;2023-07-20T09:49:12;98196.55;;;24.08;58.51
57847;BME280;43675;50.030;21.952;2023-07-20T09:51:39;98193.61;;;24.14;57.64
57847;BME280;43675;50.030;21.952;2023-07-20T09:54:07;98193.32;;;24.10;57.90
57847;BME280;43675;50.030;21.952;2023-07-20T09:56:34;98189.25;;;24.10;57.34
57847;BME280;43675;50.030;21.952;2023-07-20T09:59:01;98189.17;;;24.16;57.18
57847;BME280;43675;50.030;21.952;2023-07-20T10:01:28;98195.09;;;24.29;57.03
57847;BME280;43675;50.030;21.952;2023-07-20T10:03:58;98191.77;;;24.34;56.78
57847;BME280;43675;50.030;21.952;2023-07-20T10:06:25;98190.52;;;24.18;57.09
57847;BME280;43675;50.030;21.952;2023-07-20T10:08:59;98193.52;;;23.92;56.91
57847;BME280;43675;50.030;21.952;2023-07-20T10:11:30;98197.20;;;23.82;56.80
57847;BME280;43675;50.030;21.952;2023-07-20T10:13:59;98202.27;;;23.61;56.33
57847;BME280;43675;50.030;21.952;2023-07-20T10:16:34;98201.39;;;23.47;56.60
57847;BME280;43675;50.030;21.952;2023-07-20T10:22:03;98202.83;;;23.98;56.09
57847;BME280;43675;50.030;21.952;2023-07-20T10:24:32;98208.81;;;24.26;55.30
57847;BME280;43675;50.030;21.952;2023-07-20T10:27:01;98205.29;;;24.33;54.23
57847;BME280;43675;50.030;21.952;2023-07-20T10:29:29;98201.02;;;24.43;54.09
57847;BME280;43675;50.030;21.952;2023-07-20T10:31:56;98201.94;;;24.43;53.73
57847;BME280;43675;50.030;21.952;2023-07-20T10:34:24;98201.36;;;24.49;53.57
57847;BME280;43675;50.030;21.952;2023-07-20T10:36:50;98194.55;;;24.44;53.05
57847;BME280;43675;50.030;21.952;2023-07-20T10:39:43;98196.45;;;24.42;54.05
57847;BME280;43675;50.030;21.952;2023-07-20T10:42:10;98196.48;;;24.57;54.10
57847;BME280;43675;50.030;21.952;2023-07-20T10:44:37;98200.45;;;24.80;52.99
57847;BME280;43675;50.030;21.952;2023-07-20T10:47:12;98196.48;;;24.99;53.08
57847;BME280;43675;50.030;21.952;2023-07-20T10:49:58;98191.09;;;25.23;52.27
57847;BME280;43675;50.030;21.952;2023-07-20T10:52:25;98197.66;;;25.32;50.90
57847;BME280;43675;50.030;21.952;2023-07-20T10:54:52;98194.98;;;25.24;50.30
57847;BME280;43675;50.030;21.952;2023-07-20T10:57:24;98190.21;;;25.27;50.68
57847;BME280;43675;50.030;21.952;2023-07-20T10:59:51;98189.91;;;25.38;50.38
57847;BME280;43675;50.030;21.952;2023-07-20T11:02:18;98187.69;;;25.50;49.91
57847;BME280;43675;50.030;21.952;2023-07-20T11:04:46;98184.24;;;25.68;50.23
57847;BME280;43675;50.030;21.952;2023-07-20T11:07:36;98181.70;;;25.83;50.01
57847;BME280;43675;50.030;21.952;2023-07-20T11:10:15;98172.52;;;25.78;49.65
57847;BME280;43675;50.030;21.952;2023-07-20T11:13:18;98173.15;;;25.70;49.65
57847;BME280;43675;50.030;21.952;2023-07-20T11:18:27;98148.08;;;25.06;49.35
57847;BME280;43675;50.030;21.952;2023-07-20T11:20:54;98145.33;;;24.80;50.07
57847;BME280;43675;50.030;21.952;2023-07-20T11:23:21;98143.20;;;24.75;50.33
57847;BME280;43675;50.030;21.952;2023-07-20T11:25:48;98144.19;;;24.74;50.50
57847;BME280;43675;50.030;21.952;2023-07-20T11:28:15;98141.31;;;24.78;50.18
57847;BME280;43675;50.030;21.952;2023-07-20T11:30:41;98138.44;;;24.75;49.60
57847;BME280;43675;50.030;21.952;2023-07-20T11:33:08;98132.84;;;24.71;49.76
57847;BME280;43675;50.030;21.952;2023-07-20T11:35:45;98132.95;;;24.73;49.43
57847;BME280;43675;50.030;21.952;2023-07-20T11:38:12;98136.20;;;24.73;49.53
57847;BME280;43675;50.030;21.952;2023-07-20T11:40:46;98140.75;;;24.73;49.21
57847;BME280;43675;50.030;21.952;2023-07-20T11:43:13;98137.45;;;24.60;48.70
57847;BME280;43675;50.030;21.952;2023-07-20T11:45:40;98138.02;;;24.46;48.73
57847;BME280;43675;50.030;21.952;2023-07-20T11:48:06;98134.89;;;24.47;48.74
57847;BME280;43675;50.030;21.952;2023-07-20T11:50:38;98139.52;;;24.59;48.96
57847;BME280;43675;50.030;21.952;2023-07-20T11:53:05;98130.16;;;24.71;48.10
57847;BME280;43675;50.030;21.952;2023-07-20T11:55:32;98122.77;;;24.91;48.04
57847;BME280;43675;50.030;21.952;2023-07-20T11:58:06;98127.34;;;25.14;47.29
57847;BME280;43675;50.030;21.952;2023-07-20T12:00:33;98131.52;;;25.24;46.71
57847;BME280;43675;50.030;21.952;2023-07-20T12:03:00;98130.77;;;25.25;47.39
57847;BME280;43675;50.030;21.952;2023-07-20T12:05:27;98124.76;;;25.34;47.05
57847;BME280;43675;50.030;21.952;2023-07-20T12:07:54;98123.79;;;25.37;46.46
57847;BME280;43675;50.030;21.952;2023-07-20T12:10:26;98127.13;;;25.36;46.30
57847;BME280;43675;50.030;21.952;2023-07-20T12:12:53;98123.43;;;25.38;46.13
57847;BME280;43675;50.030;21.952;2023-07-20T12:17:51;98118.02;;;25.60;46.22
57847;BME280;43675;50.030;21.952;2023-07-20T12:22:52;98114.25;;;25.45;46.26
57847;BME280;43675;50.030;21.952;2023-07-20T12:25:19;98114.58;;;25.37;46.82
57847;BME280;43675;50.030;21.952;2023-07-20T12:27:45;98115.78;;;25.28;46.61
57847;BME280;43675;50.030;21.952;2023-07-20T12:30:12;98117.68;;;25.22;46.49
57847;BME280;43675;50.030;21.952;2023-07-20T12:32:39;98121.74;;;25.07;46.22
57847;BME280;43675;50.030;21.952;2023-07-20T12:35:06;98120.39;;;24.88;46.09
57847;BME280;43675;50.030;21.952;2023-07-20T12:37:32;98119.42;;;24.78;46.20
57847;BME280;43675;50.030;21.952;2023-07-20T12:39:59;98111.47;;;24.70;46.05
57847;BME280;43675;50.030;21.952;2023-07-20T12:42:26;98113.75;;;24.77;46.45
57847;BME280;43675;50.030;21.952;2023-07-20T12:44:53;98108.15;;;24.73;46.17
57847;BME280;43675;50.030;21.952;2023-07-20T12:47:19;98102.89;;;24.62;46.32
57847;BME280;43675;50.030;21.952;2023-07-20T12:49:46;98105.48;;;24.62;46.55
57847;BME280;43675;50.030;21.952;2023-07-20T12:52:12;98104.34;;;24.59;46.64
57847;BME280;43675;50.030;21.952;2023-07-20T12:54:39;98104.13;;;24.61;46.48
57847;BME280;43675;50.030;21.952;2023-07-20T12:57:06;98102.63;;;24.58;46.11
57847;BME280;43675;50.030;21.952;2023-07-20T12:59:32;98100.50;;;24.58;46.08
57847;BME280;43675;50.030;21.952;2023-07-20T13:01:59;98098.55;;;24.73;46.19
57847;BME280;43675;50.030;21.952;2023-07-20T13:04:25;98099.85;;;25.00;46.07
57847;BME280;43675;50.030;21.952;2023-07-20T13:06:52;98095.59;;;25.24;45.59
57847;BME280;43675;50.030;21.952;2023-07-20T13:09:18;98101.82;;;25.48;45.61
57847;BME280;43675;50.030;21.952;2023-07-20T13:11:45;98100.80;;;25.65;45.40